Monday, September 1, 2014, 3:28 AM EDT

KPHF, Williamsburg International Airport

Location: Newport News, VA, United States Lat: 37.133
Local Time: 3:28 AM EDT ( 7:28 GMT) Lon: -76.5
Time Zone: US/Eastern Elev: 42 ft

Show me the last for .
Show Decoded

2014-09-01 02:54 METAR KPHF 010654Z 21011KT 10SM FEW055 27/23 A3005 RMK AO2 SLP174 T02720228 =
2014-09-01 01:54 METAR KPHF 010554Z 21010KT 10SM CLR 28/23 A3006 RMK AO2 SLP179 T02780228 10311
                 20278 58002 =
2014-09-01 00:54 METAR KPHF 010454Z 21011KT 10SM CLR 28/23 A3007 RMK AO2 SLP181 T02830228
                 403500256 =
2014-08-31 23:54 METAR KPHF 010354Z 21010KT 10SM CLR 29/23 A3007 RMK AO2 SLP182 T02890228 =
2014-08-31 22:54 METAR KPHF 010254Z 20011KT 10SM CLR 29/23 A3007 =
2014-08-31 21:54 METAR KPHF 010154Z AUTO 20009KT 10SM CLR 30/22 A3007 =
2014-08-31 20:54 METAR KPHF 010054Z AUTO 19007KT 10SM CLR 31/22 A3006 RMK AO2 SLP177 T03060222
                 TSNO =
2014-08-31 19:54 METAR KPHF 312354Z 20008KT 10SM CLR 31/22 A3005 RMK AO2 SLP173 T03110217 10350
                 20311 55001 =
2014-08-31 18:54 METAR KPHF 312254Z 21009KT 10SM CLR 32/22 A3004 =
2014-08-31 17:54 METAR KPHF 312154Z 20011KT 10SM CLR 33/21 A3004 =
2014-08-31 16:54 METAR KPHF 312054Z 19010KT 10SM FEW048 34/22 A3005 RMK AO2 SLP174 T03390217
                 58016 =
2014-08-31 15:54 METAR KPHF 311954Z 20015KT 10SM FEW044 34/22 A3007 =
2014-08-31 14:54 METAR KPHF 311854Z 23013KT 10SM CLR 34/22 A3008 RMK AO2 SLP187 T03440217 =
2014-08-31 13:54 METAR KPHF 311754Z 18009KT 130V240 10SM CLR 34/22 A3009 RMK AO2 SLP190 T03390217
                 10339 20267 56018 =
2014-08-31 12:54 METAR KPHF 311654Z 19011KT 10SM CLR 33/21 A3011 RMK AO2 SLP194 T03280211 =
2014-08-31 11:54 METAR KPHF 311554Z 23011KT 10SM CLR 32/22 A3013 RMK AO2 SLP202 T03220217 =
2014-08-31 10:54 METAR KPHF 311454Z 22010KT 10SM CLR 31/22 A3015 RMK AO2 SLP209 T03110222 58014 =
2014-08-31 09:54 METAR KPHF 311354Z 23010KT 10SM CLR 29/22 A3017 RMK AO2 SLP215 T02940217 =
2014-08-31 08:54 METAR KPHF 311254Z 23013KT 10SM CLR 28/22 A3018 RMK AO2 SLP219 T02830222 =
2014-08-31 07:54 METAR KPHF 311154Z 23008KT 10SM CLR 27/23 A3019 RMK AO2 SLP222 T02670228 10267
                 20256 53013 =
2014-08-31 06:54 METAR KPHF 311054Z 23007KT 10SM CLR 26/23 A3017 RMK AO2 SLP217 T02610228 =
2014-08-31 05:54 METAR KPHF 310954Z 21007KT 10SM CLR 26/23 A3016 RMK AO2 SLP211 T02610228 =
2014-08-31 04:54 METAR KPHF 310854Z 22007KT 10SM CLR 26/22 A3015 RMK AO2 SLP209 T02610222 55004 =
2014-08-31 03:54 METAR KPHF 310754Z 21008KT 10SM CLR 26/22 A3015 RMK AO2 SLP209 T02610222 =

Support USWX by starting your Amazon purchase here.